createdAt,value
2023-05-23T03:48:25.453Z,15.32
2023-05-23T03:50:52.509Z,15.60
2023-05-23T03:53:19.526Z,17.58
2023-05-23T03:55:46.148Z,15.98
2023-05-23T03:58:12.833Z,15.13
2023-05-23T04:00:39.564Z,14.20
2023-05-23T04:03:06.254Z,14.48
2023-05-23T04:05:32.990Z,15.35
2023-05-23T04:08:01.207Z,14.88
2023-05-23T04:10:27.992Z,13.52
2023-05-23T04:12:54.644Z,14.55
2023-05-23T04:15:21.530Z,13.63
2023-05-23T04:17:48.477Z,13.50
2023-05-23T04:20:15.204Z,14.40
2023-05-23T04:22:41.846Z,14.10
2023-05-23T04:25:09.461Z,14.68
2023-05-23T04:27:40.370Z,14.30
2023-05-23T04:30:09.866Z,13.45
2023-05-23T04:32:38.250Z,16.10
2023-05-23T04:35:05.346Z,14.65
2023-05-23T04:37:33.103Z,16.85
2023-05-23T04:39:59.916Z,16.40
2023-05-23T04:42:27.364Z,13.27
2023-05-23T04:44:56.770Z,16.50
2023-05-23T04:47:24.886Z,17.02
2023-05-23T04:49:53.957Z,17.70
2023-05-23T04:52:20.924Z,16.00
2023-05-23T04:54:48.835Z,16.05
2023-05-23T04:57:15.765Z,16.13
2023-05-23T04:59:43.059Z,19.08
2023-05-23T05:02:09.742Z,15.68
2023-05-23T05:04:36.428Z,16.50
2023-05-23T05:07:04.527Z,16.45
2023-05-23T05:09:31.878Z,15.75
2023-05-23T05:11:59.382Z,15.68
2023-05-23T05:14:27.757Z,16.98
2023-05-23T05:16:54.857Z,19.15
2023-05-23T05:19:21.897Z,19.13
2023-05-23T05:21:48.675Z,18.92
2023-05-23T05:24:15.795Z,22.02
2023-05-23T05:26:43.167Z,19.23
2023-05-23T05:29:09.876Z,19.30
2023-05-23T05:31:37.863Z,16.75
2023-05-23T05:34:04.792Z,17.02
2023-05-23T05:36:32.514Z,20.00
2023-05-23T05:38:59.377Z,16.98
2023-05-23T05:41:26.856Z,19.27
2023-05-23T05:43:53.733Z,22.60
2023-05-23T05:46:20.521Z,16.98
2023-05-23T05:48:47.438Z,15.95
2023-05-23T05:51:14.224Z,15.38
2023-05-23T05:53:40.910Z,19.55
2023-05-23T05:56:09.203Z,14.07
2023-05-23T05:58:36.115Z,15.73
2023-05-23T06:01:02.828Z,16.48
2023-05-23T06:03:29.674Z,17.02
2023-05-23T06:05:56.417Z,16.52
2023-05-23T06:08:23.354Z,15.48
2023-05-23T06:10:50.176Z,19.52
2023-05-23T06:13:17.170Z,17.60
2023-05-23T06:15:44.329Z,17.88
2023-05-23T06:18:11.672Z,17.38
2023-05-23T06:20:38.476Z,18.67
2023-05-23T06:23:05.718Z,18.98
2023-05-23T06:25:32.452Z,21.30
2023-05-23T06:27:59.626Z,19.00
2023-05-23T06:30:26.712Z,19.88
2023-05-23T06:32:53.439Z,18.38
2023-05-23T06:35:20.172Z,19.33
2023-05-23T06:37:46.801Z,17.80
2023-05-23T06:40:14.661Z,17.35
2023-05-23T06:42:41.891Z,19.80
2023-05-23T06:45:09.172Z,18.38
2023-05-23T06:47:35.825Z,16.25
2023-05-23T06:50:03.083Z,19.33
2023-05-23T06:52:29.784Z,19.02
2023-05-23T06:54:56.408Z,18.88
2023-05-23T06:57:23.102Z,16.63
2023-05-23T06:59:49.792Z,15.63
2023-05-23T07:02:16.467Z,16.65
2023-05-23T07:04:43.214Z,15.82
2023-05-23T07:07:09.860Z,14.88
2023-05-23T07:09:37.667Z,17.45
2023-05-23T07:12:04.485Z,17.42
2023-05-23T07:14:31.134Z,18.98
2023-05-23T07:16:57.873Z,16.25
2023-05-23T07:19:24.646Z,15.82
2023-05-23T07:21:51.497Z,15.73
2023-05-23T07:24:18.196Z,19.67
2023-05-23T07:26:44.868Z,18.10
2023-05-23T07:29:11.539Z,17.85
2023-05-23T07:31:38.340Z,17.48
2023-05-23T07:34:05.086Z,20.40
2023-05-23T07:36:34.176Z,18.40
2023-05-23T07:39:02.100Z,17.08
2023-05-23T07:41:28.799Z,16.38
2023-05-23T07:43:55.629Z,18.98
2023-05-23T07:46:22.966Z,18.15
2023-05-23T07:48:49.880Z,19.00
2023-05-23T07:51:21.225Z,17.85
2023-05-23T07:53:48.090Z,17.67
2023-05-23T07:56:14.755Z,19.10
2023-05-23T07:58:41.431Z,17.98
2023-05-23T08:01:08.169Z,21.85
2023-05-23T08:03:34.803Z,17.23
2023-05-23T08:06:01.518Z,17.52
2023-05-23T08:08:28.150Z,16.95
2023-05-23T08:10:54.776Z,19.90
2023-05-23T08:13:21.744Z,18.00
2023-05-23T08:15:48.446Z,16.38
2023-05-23T08:18:15.218Z,17.10
2023-05-23T08:20:42.401Z,16.00
2023-05-23T08:23:09.295Z,16.83
2023-05-23T08:25:35.949Z,18.25
2023-05-23T08:28:02.624Z,17.60
2023-05-23T08:30:29.718Z,18.98
2023-05-23T08:32:57.851Z,21.42
2023-05-23T08:35:24.672Z,18.38
2023-05-23T08:37:52.281Z,20.80
2023-05-23T08:40:21.552Z,17.45
2023-05-23T08:42:49.628Z,16.45
2023-05-23T08:45:17.888Z,22.52
2023-05-23T08:47:45.888Z,21.58
2023-05-23T08:50:14.670Z,19.45
2023-05-23T08:52:56.038Z,20.35
2023-05-23T08:55:29.889Z,20.40
2023-05-23T08:58:00.180Z,18.35
2023-05-23T09:00:28.063Z,16.67
2023-05-23T09:02:55.430Z,18.88
2023-05-23T09:05:22.678Z,21.00
2023-05-23T09:07:51.228Z,20.63
2023-05-23T09:10:20.264Z,21.13
2023-05-23T09:12:47.361Z,17.05
2023-05-23T09:15:14.680Z,18.33
2023-05-23T09:17:41.618Z,16.40
2023-05-23T09:20:14.114Z,18.80
2023-05-23T09:22:41.566Z,17.52
2023-05-23T09:25:08.748Z,16.77
2023-05-23T09:27:36.248Z,22.13
2023-05-23T09:30:07.413Z,17.90
2023-05-23T09:32:34.221Z,17.83
2023-05-23T09:35:12.174Z,16.60
2023-05-23T09:37:41.107Z,17.75
2023-05-23T09:40:10.881Z,18.00
2023-05-23T09:42:46.377Z,17.98
2023-05-23T09:45:17.135Z,20.73
2023-05-23T09:47:53.901Z,17.67
2023-05-23T09:50:22.368Z,18.42
2023-05-23T09:52:49.406Z,14.85
2023-05-23T09:55:16.286Z,17.17
2023-05-23T09:57:44.238Z,15.70
2023-05-23T10:00:14.851Z,15.95
2023-05-23T10:03:13.474Z,17.25
2023-05-23T10:06:04.969Z,17.15
2023-05-23T10:08:39.979Z,16.40
2023-05-23T10:11:16.634Z,15.80
2023-05-23T10:13:49.537Z,15.10
2023-05-23T10:16:27.524Z,15.57
2023-05-23T10:19:00.903Z,17.27
2023-05-23T10:21:36.040Z,15.20
2023-05-23T10:24:04.860Z,15.00
2023-05-23T10:26:31.841Z,16.40
2023-05-23T10:28:58.969Z,13.90
2023-05-23T10:31:28.105Z,15.77
2023-05-23T10:34:03.283Z,16.40
2023-05-23T10:36:48.663Z,16.38
2023-05-23T10:39:27.949Z,21.80
2023-05-23T10:42:03.091Z,19.08
2023-05-23T10:44:31.067Z,17.15
2023-05-23T10:47:03.943Z,17.30
2023-05-23T10:49:43.652Z,17.45
2023-05-23T10:52:12.375Z,20.73
2023-05-23T10:54:44.839Z,20.70
2023-05-23T10:57:22.077Z,23.03
2023-05-23T10:59:52.496Z,21.17
2023-05-23T11:02:25.417Z,21.10
2023-05-23T11:05:23.090Z,17.33
2023-05-23T11:08:14.473Z,19.13
2023-05-23T11:10:59.410Z,22.35
2023-05-23T11:13:46.500Z,20.30
2023-05-23T11:16:26.587Z,20.15
2023-05-23T11:19:17.101Z,18.80
2023-05-23T11:21:45.254Z,19.35
2023-05-23T11:24:12.097Z,18.90
2023-05-23T11:26:38.797Z,18.35
2023-05-23T11:29:09.578Z,19.45
2023-05-23T11:31:40.601Z,18.67
2023-05-23T11:34:07.709Z,16.95
2023-05-23T11:36:35.751Z,16.67
2023-05-23T11:39:03.860Z,17.02
2023-05-23T11:41:30.999Z,17.08
2023-05-23T11:43:59.696Z,16.77
2023-05-23T11:46:26.748Z,17.67
2023-05-23T11:48:55.111Z,21.73
2023-05-23T11:51:22.197Z,22.42
2023-05-23T11:53:48.901Z,23.67
2023-05-23T11:56:16.176Z,22.05
2023-05-23T11:58:43.441Z,25.52
2023-05-23T12:01:12.882Z,23.85
2023-05-23T12:03:47.586Z,26.20
2023-05-23T12:06:24.728Z,25.70
2023-05-23T12:08:54.460Z,28.05
2023-05-23T12:11:23.668Z,25.88
2023-05-23T12:13:53.468Z,25.63
2023-05-23T12:16:21.415Z,25.30
2023-05-23T12:18:48.534Z,26.73
2023-05-23T12:21:15.508Z,26.23
2023-05-23T12:23:42.848Z,26.27
2023-05-23T12:26:12.300Z,25.80
2023-05-23T12:28:47.663Z,23.92
2023-05-23T12:31:18.007Z,25.88
2023-05-23T12:33:46.271Z,25.80
2023-05-23T12:36:13.366Z,25.50
2023-05-23T12:38:45.279Z,20.70
2023-05-23T12:41:13.033Z,22.30
2023-05-23T12:43:41.022Z,22.25
2023-05-23T12:46:08.240Z,22.52
2023-05-23T12:48:35.736Z,24.13
2023-05-23T12:51:03.407Z,21.35
2023-05-23T12:53:30.226Z,23.10
2023-05-23T12:55:56.860Z,22.40
2023-05-23T12:58:25.185Z,20.25
2023-05-23T13:00:52.026Z,21.67
2023-05-23T13:03:18.941Z,20.73
2023-05-23T13:05:45.809Z,20.88
2023-05-23T13:08:12.485Z,22.80
2023-05-23T13:10:40.670Z,20.20
2023-05-23T13:13:07.426Z,18.70
2023-05-23T13:15:34.201Z,18.70
2023-05-23T13:18:01.028Z,17.10
2023-05-23T13:20:30.314Z,15.18
2023-05-23T13:22:58.083Z,14.82
2023-05-23T13:25:25.846Z,15.10
2023-05-23T13:27:53.535Z,16.67
2023-05-23T13:30:21.061Z,14.23
2023-05-23T13:32:48.589Z,15.35
2023-05-23T13:35:17.073Z,14.25
2023-05-23T13:37:43.798Z,13.20
2023-05-23T13:40:13.644Z,13.63
2023-05-23T13:42:40.486Z,14.82
2023-05-23T13:45:07.921Z,14.30
2023-05-23T13:47:35.376Z,17.25
2023-05-23T13:50:03.008Z,13.75
2023-05-23T13:52:29.683Z,13.85
2023-05-23T13:54:56.635Z,14.73
2023-05-23T13:57:23.279Z,12.30
2023-05-23T13:59:49.916Z,15.65
2023-05-23T14:02:16.847Z,14.40
2023-05-23T14:04:43.633Z,16.35
2023-05-23T14:07:10.310Z,14.00
2023-05-23T14:09:37.019Z,12.07
2023-05-23T14:12:03.993Z,14.70
2023-05-23T14:14:30.686Z,14.18
2023-05-23T14:16:57.909Z,13.55
2023-05-23T14:19:24.692Z,15.60
2023-05-23T14:21:51.400Z,14.63
2023-05-23T14:24:18.051Z,14.38
2023-05-23T14:26:44.749Z,12.38
2023-05-23T14:29:11.985Z,15.02
2023-05-23T14:31:38.689Z,12.40
2023-05-23T14:34:05.437Z,13.15
2023-05-23T14:36:33.384Z,12.93
2023-05-23T14:39:01.290Z,13.18
2023-05-23T14:41:28.944Z,12.93
2023-05-23T14:43:55.777Z,13.88
2023-05-23T14:46:22.682Z,12.63
2023-05-23T14:48:49.372Z,14.65
2023-05-23T14:51:27.222Z,14.68
2023-05-23T14:54:01.757Z,13.38
2023-05-23T14:56:28.466Z,13.65
2023-05-23T14:58:57.305Z,14.00
2023-05-23T15:01:24.137Z,14.55
2023-05-23T15:03:51.181Z,12.85
2023-05-23T15:06:18.005Z,15.38
2023-05-23T15:08:44.740Z,15.57
2023-05-23T15:11:11.431Z,15.25
2023-05-23T15:13:38.143Z,13.90
2023-05-23T15:16:04.922Z,15.55
2023-05-23T15:18:40.595Z,12.63
2023-05-23T15:21:08.457Z,15.20
2023-05-23T15:23:35.218Z,14.27
2023-05-23T15:26:01.910Z,14.65
2023-05-23T15:28:28.582Z,13.93
2023-05-23T15:30:57.068Z,15.85
2023-05-23T15:33:23.838Z,16.13
2023-05-23T15:35:51.170Z,13.55
2023-05-23T15:38:20.015Z,16.00
2023-05-23T15:40:48.660Z,17.55
2023-05-23T15:43:15.583Z,13.68
2023-05-23T15:45:42.527Z,16.95
2023-05-23T15:48:09.389Z,16.67
2023-05-23T15:50:36.106Z,18.15
2023-05-23T15:53:02.894Z,18.00
2023-05-23T15:55:29.730Z,16.33
2023-05-23T15:57:56.411Z,18.20
2023-05-23T16:00:23.074Z,14.68
2023-05-23T16:02:49.740Z,14.10
2023-05-23T16:05:16.498Z,16.30
2023-05-23T16:07:43.342Z,18.13
2023-05-23T16:10:10.343Z,17.85
2023-05-23T16:12:37.114Z,18.00
2023-05-23T16:15:04.126Z,17.70
2023-05-23T16:17:30.790Z,17.88
2023-05-23T16:19:57.446Z,17.30
2023-05-23T16:22:24.345Z,12.13
2023-05-23T16:24:51.899Z,9.10
2023-05-23T16:27:19.535Z,9.02
2023-05-23T16:29:46.242Z,8.25
2023-05-23T16:32:13.076Z,7.30
2023-05-23T16:34:39.846Z,8.15
2023-05-23T16:37:06.929Z,7.57
2023-05-23T16:39:33.584Z,7.50
2023-05-23T16:42:00.716Z,8.70
2023-05-23T16:44:27.543Z,6.88
2023-05-23T16:46:54.257Z,6.70
2023-05-23T16:49:20.978Z,7.85
2023-05-23T16:51:48.835Z,9.10
2023-05-23T16:54:15.763Z,7.13
2023-05-23T16:56:42.975Z,6.88
2023-05-23T16:59:09.817Z,7.30
2023-05-23T17:01:36.658Z,6.47
2023-05-23T17:04:04.508Z,6.10
2023-05-23T17:06:32.135Z,7.45
2023-05-23T17:08:58.911Z,5.88
2023-05-23T17:11:25.579Z,5.30
2023-05-23T17:13:52.394Z,5.57
2023-05-23T17:16:20.626Z,6.43
2023-05-23T17:18:47.568Z,6.53
2023-05-23T17:21:14.292Z,7.00
2023-05-23T17:23:41.704Z,4.95
2023-05-23T17:26:08.367Z,5.75
2023-05-23T17:28:35.045Z,6.53
2023-05-23T17:31:01.934Z,5.63
2023-05-23T17:33:28.657Z,5.03
2023-05-23T17:35:55.363Z,5.35
2023-05-23T17:38:22.059Z,5.93
2023-05-23T17:40:48.755Z,6.55
2023-05-23T17:43:15.436Z,6.72
2023-05-23T17:45:42.203Z,6.00
2023-05-23T17:48:09.005Z,4.70
2023-05-23T17:50:35.861Z,5.10
2023-05-23T17:53:04.309Z,4.63
2023-05-23T17:55:31.156Z,6.32
2023-05-23T17:57:57.974Z,4.32
2023-05-23T18:00:24.959Z,5.30
2023-05-23T18:02:51.847Z,5.30
2023-05-23T18:05:20.769Z,5.28
2023-05-23T18:07:47.758Z,6.05
2023-05-23T18:10:14.473Z,7.22
2023-05-23T18:12:41.300Z,4.72
2023-05-23T18:15:08.805Z,5.00
2023-05-23T18:17:36.398Z,5.05
2023-05-23T18:20:03.684Z,4.38
2023-05-23T18:22:33.276Z,4.95
2023-05-23T18:25:00.389Z,5.05
2023-05-23T18:27:27.148Z,4.45
2023-05-23T18:29:53.857Z,5.15
2023-05-23T18:32:21.437Z,4.15
2023-05-23T18:34:48.223Z,4.53
2023-05-23T18:37:15.001Z,5.72
2023-05-23T18:39:41.845Z,4.70
2023-05-23T18:42:08.536Z,4.80
2023-05-23T18:44:35.266Z,5.28
2023-05-23T18:47:02.178Z,4.32
2023-05-23T18:49:28.901Z,4.38
2023-05-23T18:51:55.684Z,5.80
2023-05-23T18:54:22.393Z,5.30
2023-05-23T18:56:49.056Z,6.53
2023-05-23T18:59:16.896Z,4.95
2023-05-23T19:01:43.686Z,4.80
2023-05-23T19:04:10.514Z,5.97
2023-05-23T19:06:37.425Z,4.60
2023-05-23T19:09:09.386Z,4.68
2023-05-23T19:11:37.319Z,4.80
2023-05-23T19:14:04.166Z,5.15
2023-05-23T19:16:31.260Z,4.97
2023-05-23T19:18:58.023Z,6.15
2023-05-23T19:21:24.713Z,4.60
2023-05-23T19:23:51.551Z,5.05
2023-05-23T19:26:19.882Z,5.00
2023-05-23T19:28:47.216Z,4.18
2023-05-23T19:31:14.016Z,4.55
2023-05-23T19:33:40.865Z,6.90
2023-05-23T19:36:07.612Z,4.88
2023-05-23T19:38:34.301Z,4.28
2023-05-23T19:41:00.984Z,5.30
2023-05-23T19:43:27.696Z,4.18
2023-05-23T19:45:54.419Z,4.05
2023-05-23T19:48:21.164Z,5.15
2023-05-23T19:50:47.971Z,5.18
2023-05-23T19:53:14.992Z,6.40
2023-05-23T19:55:42.757Z,4.55
2023-05-23T19:58:09.482Z,5.40
2023-05-23T20:00:36.217Z,6.32
2023-05-23T20:03:03.568Z,6.45
2023-05-23T20:05:30.526Z,5.50
2023-05-23T20:07:57.179Z,5.50
2023-05-23T20:10:25.087Z,6.20
2023-05-23T20:12:51.849Z,5.55
2023-05-23T20:15:27.661Z,5.22
2023-05-23T20:18:05.751Z,5.00
2023-05-23T20:20:32.559Z,4.68
2023-05-23T20:22:59.325Z,5.15
2023-05-23T20:25:28.417Z,5.45
2023-05-23T20:27:58.567Z,4.85
2023-05-23T20:30:25.399Z,5.03
2023-05-23T20:32:54.097Z,5.15
2023-05-23T20:35:24.033Z,4.95
2023-05-23T20:37:53.834Z,5.82
2023-05-23T20:40:20.934Z,4.75
2023-05-23T20:42:47.705Z,5.10
2023-05-23T20:45:15.412Z,5.10
2023-05-23T20:47:42.946Z,6.13
2023-05-23T20:50:11.183Z,5.57
2023-05-23T20:52:39.392Z,5.43
2023-05-23T20:55:07.304Z,5.95
2023-05-23T20:57:36.469Z,6.32
2023-05-23T21:00:15.623Z,6.18
2023-05-23T21:02:43.224Z,5.70
2023-05-23T21:05:12.023Z,6.63
2023-05-23T21:07:39.102Z,6.95
2023-05-23T21:10:06.467Z,6.50
2023-05-23T21:12:33.177Z,7.63
2023-05-23T21:14:59.930Z,6.50
2023-05-23T21:17:26.785Z,6.72
2023-05-23T21:19:53.522Z,7.80
2023-05-23T21:22:20.227Z,6.10
2023-05-23T21:24:46.868Z,8.05
2023-05-23T21:27:13.540Z,6.95
2023-05-23T21:29:40.454Z,6.90
2023-05-23T21:32:07.403Z,7.45
2023-05-23T21:34:34.192Z,8.38
2023-05-23T21:37:00.976Z,8.82
2023-05-23T21:39:39.200Z,7.57
2023-05-23T21:42:14.183Z,8.90
2023-05-23T21:44:41.143Z,8.80
2023-05-23T21:47:08.170Z,7.05
2023-05-23T21:49:35.436Z,8.18
2023-05-23T21:52:02.702Z,7.72
2023-05-23T21:54:29.423Z,8.93
2023-05-23T21:56:56.505Z,9.05
2023-05-23T21:59:23.527Z,8.82
2023-05-23T22:01:50.432Z,9.05
2023-05-23T22:04:20.324Z,9.32
2023-05-23T22:06:47.110Z,7.93
2023-05-23T22:09:15.182Z,7.75
2023-05-23T22:11:42.529Z,8.60
2023-05-23T22:14:09.498Z,8.02
2023-05-23T22:16:39.432Z,8.73
2023-05-23T22:19:06.950Z,8.68
2023-05-23T22:21:33.744Z,8.77
2023-05-23T22:24:00.614Z,10.05
2023-05-23T22:26:28.089Z,9.30
2023-05-23T22:28:55.052Z,11.38
2023-05-23T22:31:22.054Z,8.38
2023-05-23T22:33:48.809Z,9.18
2023-05-23T22:36:15.885Z,9.85
2023-05-23T22:38:42.626Z,9.45
2023-05-23T22:41:09.381Z,9.02
2023-05-23T22:43:37.090Z,8.10
2023-05-23T22:46:03.889Z,9.40
2023-05-23T22:48:33.650Z,9.50
2023-05-23T22:51:02.180Z,9.32
2023-05-23T22:53:29.698Z,10.27
2023-05-23T22:55:56.477Z,11.18
2023-05-23T22:58:23.269Z,10.73
